Time,TemperatureF,DewpointF,PressureIn,WindDirection,WindDirectionDegrees,WindSpeedMPH,WindSpeedGustMPH,Humidity,HourlyPrecipIn,Conditions,Clouds,dailyrainin,SoftwareType,DateUTC
2013-03-29 00:03:00,40.0,31.0,30.28,East,83,5.0,9.0,70,0.00,,,0.00,,2013-03-29 05:03:00,
2013-03-29 00:12:00,40.0,31.0,30.28,East,83,5.0,9.0,70,0.00,,,0.00,,2013-03-29 05:12:00,
2013-03-29 00:23:00,40.0,31.0,30.28,East,83,5.0,9.0,70,0.00,,,0.00,,2013-03-29 05:23:00,
2013-03-29 00:33:00,40.0,31.0,30.28,ENE,73,6.0,10.0,70,0.00,,,0.00,,2013-03-29 05:33:00,
2013-03-29 00:43:00,40.0,31.0,30.28,ENE,73,6.0,10.0,70,0.00,,,0.00,,2013-03-29 05:43:00,
2013-03-29 00:52:00,40.0,31.0,30.28,ENE,73,6.0,10.0,70,0.00,,,0.00,,2013-03-29 05:52:00,
2013-03-29 01:02:00,39.0,30.0,30.28,East,98,5.0,9.0,71,0.00,,,0.00,,2013-03-29 06:02:00,
2013-03-29 01:12:00,39.0,30.0,30.28,East,98,5.0,9.0,71,0.00,,,0.00,,2013-03-29 06:12:00,
2013-03-29 01:23:00,39.0,30.0,30.28,East,98,5.0,9.0,71,0.00,,,0.00,,2013-03-29 06:23:00,
2013-03-29 01:32:00,39.0,31.0,30.28,ESE,110,5.0,8.0,73,0.00,,,0.00,,2013-03-29 06:32:00,
2013-03-29 01:42:00,39.0,31.0,30.28,ESE,110,5.0,8.0,73,0.00,,,0.00,,2013-03-29 06:42:00,
2013-03-29 01:52:00,39.0,31.0,30.28,ESE,110,5.0,8.0,73,0.00,,,0.00,,2013-03-29 06:52:00,
2013-03-29 02:03:00,39.0,31.0,30.28,ESE,104,4.0,7.0,74,0.00,,,0.00,,2013-03-29 07:03:00,
2013-03-29 02:12:00,39.0,31.0,30.28,ESE,104,4.0,7.0,74,0.00,,,0.00,,2013-03-29 07:12:00,
2013-03-29 02:22:00,39.0,31.0,30.28,ESE,104,4.0,7.0,74,0.00,,,0.00,,2013-03-29 07:22:00,
2013-03-29 02:32:00,39.0,31.0,30.27,East,87,4.0,7.0,73,0.00,,,0.00,,2013-03-29 07:32:00,
2013-03-29 02:42:00,39.0,31.0,30.27,East,87,4.0,7.0,73,0.00,,,0.00,,2013-03-29 07:42:00,
2013-03-29 02:52:00,39.0,31.0,30.27,East,87,4.0,7.0,73,0.00,,,0.00,,2013-03-29 07:52:00,
2013-03-29 03:02:00,39.0,31.0,30.27,ESE,105,4.0,9.0,74,0.00,,,0.00,,2013-03-29 08:02:00,
2013-03-29 03:12:00,39.0,31.0,30.27,ESE,105,4.0,9.0,74,0.00,,,0.00,,2013-03-29 08:12:00,
2013-03-29 03:22:00,39.0,31.0,30.27,ESE,105,4.0,9.0,74,0.00,,,0.00,,2013-03-29 08:22:00,
2013-03-29 03:32:00,39.0,31.0,30.26,ESE,106,4.0,8.0,73,0.00,,,0.00,,2013-03-29 08:32:00,
2013-03-29 03:42:00,39.0,31.0,30.26,ESE,106,4.0,8.0,73,0.00,,,0.00,,2013-03-29 08:42:00,
2013-03-29 03:53:00,39.0,31.0,30.26,ESE,106,4.0,8.0,73,0.00,,,0.00,,2013-03-29 08:53:00,
2013-03-29 04:02:00,39.0,31.0,30.25,East,98,5.0,8.0,74,0.00,,,0.00,,2013-03-29 09:02:00,
2013-03-29 04:13:00,39.0,31.0,30.25,East,98,5.0,8.0,74,0.00,,,0.00,,2013-03-29 09:13:00,
2013-03-29 04:22:00,39.0,31.0,30.25,East,98,5.0,8.0,74,0.00,,,0.00,,2013-03-29 09:22:00,
2013-03-29 04:33:00,38.0,31.0,30.25,ESE,110,4.0,7.0,76,0.00,,,0.00,,2013-03-29 09:33:00,
2013-03-29 04:43:00,38.0,31.0,30.25,ESE,110,4.0,7.0,76,0.00,,,0.00,,2013-03-29 09:43:00,
2013-03-29 04:52:00,38.0,31.0,30.25,ESE,110,4.0,7.0,76,0.00,,,0.00,,2013-03-29 09:52:00,
2013-03-29 05:03:00,37.0,31.0,30.25,ESE,111,2.0,4.0,78,0.00,,,0.00,,2013-03-29 10:03:00,
2013-03-29 05:12:00,37.0,31.0,30.25,ESE,111,2.0,4.0,78,0.00,,,0.00,,2013-03-29 10:12:00,
2013-03-29 05:23:00,37.0,31.0,30.25,ESE,111,2.0,4.0,78,0.00,,,0.00,,2013-03-29 10:23:00,
2013-03-29 05:33:00,37.0,31.0,30.25,East,90,3.0,5.0,80,0.00,,,0.00,,2013-03-29 10:33:00,
2013-03-29 05:42:00,37.0,31.0,30.25,East,90,3.0,5.0,80,0.00,,,0.00,,2013-03-29 10:42:00,
2013-03-29 05:53:00,37.0,31.0,30.25,East,90,3.0,5.0,80,0.00,,,0.00,,2013-03-29 10:53:00,
2013-03-29 06:03:00,37.0,31.0,30.25,East,89,3.0,7.0,78,0.00,,,0.00,,2013-03-29 11:03:00,
2013-03-29 06:12:00,37.0,31.0,30.25,East,89,3.0,7.0,78,0.00,,,0.00,,2013-03-29 11:12:00,
2013-03-29 06:23:00,37.0,31.0,30.25,East,89,3.0,7.0,78,0.00,,,0.00,,2013-03-29 11:23:00,
2013-03-29 06:32:00,37.0,31.0,30.26,East,87,3.0,6.0,78,0.00,,,0.00,,2013-03-29 11:32:00,
2013-03-29 06:43:00,37.0,31.0,30.26,East,87,3.0,6.0,78,0.00,,,0.00,,2013-03-29 11:43:00,
2013-03-29 06:53:00,37.0,31.0,30.26,East,87,3.0,6.0,78,0.00,,,0.00,,2013-03-29 11:53:00,
2013-03-29 07:02:00,38.0,31.0,30.26,East,83,5.0,9.0,76,0.00,,,0.00,,2013-03-29 12:02:00,
2013-03-29 07:12:00,38.0,31.0,30.26,East,83,5.0,9.0,76,0.00,,,0.00,,2013-03-29 12:12:00,
2013-03-29 07:22:00,38.0,31.0,30.26,East,83,5.0,9.0,76,0.00,,,0.00,,2013-03-29 12:22:00,
2013-03-29 07:32:00,38.0,31.0,30.26,East,101,5.0,8.0,76,0.00,,,0.00,,2013-03-29 12:32:00,
2013-03-29 07:43:00,38.0,31.0,30.26,East,101,5.0,8.0,76,0.00,,,0.00,,2013-03-29 12:43:00,
2013-03-29 07:53:00,38.0,31.0,30.26,East,101,5.0,8.0,76,0.00,,,0.00,,2013-03-29 12:53:00,
2013-03-29 08:03:00,39.0,31.0,30.27,East,91,4.0,8.0,74,0.00,,,0.00,,2013-03-29 13:03:00,
2013-03-29 08:12:00,39.0,31.0,30.27,East,91,4.0,8.0,74,0.00,,,0.00,,2013-03-29 13:12:00,
2013-03-29 08:22:00,39.0,31.0,30.27,East,91,4.0,8.0,74,0.00,,,0.00,,2013-03-29 13:22:00,
2013-03-29 08:32:00,40.0,32.0,30.27,ESE,110,6.0,9.0,72,0.00,,,0.00,,2013-03-29 13:32:00,
2013-03-29 08:43:00,40.0,32.0,30.27,ESE,110,6.0,9.0,72,0.00,,,0.00,,2013-03-29 13:43:00,
2013-03-29 08:53:00,40.0,32.0,30.27,ESE,110,6.0,9.0,72,0.00,,,0.00,,2013-03-29 13:53:00,
2013-03-29 09:02:00,41.0,33.0,30.27,ESE,107,5.0,8.0,72,0.00,,,0.00,,2013-03-29 14:02:00,
2013-03-29 09:12:00,41.0,33.0,30.27,ESE,107,5.0,8.0,72,0.00,,,0.00,,2013-03-29 14:12:00,
2013-03-29 09:22:00,41.0,33.0,30.27,ESE,107,5.0,8.0,72,0.00,,,0.00,,2013-03-29 14:22:00,
2013-03-29 09:32:00,43.0,34.0,30.28,East,81,5.0,11.0,69,0.00,,,0.00,,2013-03-29 14:32:00,
2013-03-29 09:42:00,43.0,34.0,30.28,East,81,5.0,11.0,69,0.00,,,0.00,,2013-03-29 14:42:00,
2013-03-29 09:53:00,43.0,34.0,30.28,East,81,5.0,11.0,69,0.00,,,0.00,,2013-03-29 14:53:00,
2013-03-29 10:02:00,44.0,34.0,30.28,East,79,4.0,9.0,68,0.00,,,0.00,,2013-03-29 15:02:00,
2013-03-29 10:12:00,44.0,34.0,30.28,East,79,4.0,9.0,68,0.00,,,0.00,,2013-03-29 15:12:00,
2013-03-29 10:22:00,44.0,34.0,30.28,East,79,4.0,9.0,68,0.00,,,0.00,,2013-03-29 15:22:00,
2013-03-29 10:33:00,47.0,35.0,30.28,East,91,7.0,10.0,62,0.00,,,0.00,,2013-03-29 15:33:00,
2013-03-29 10:43:00,47.0,35.0,30.28,East,91,7.0,10.0,62,0.00,,,0.00,,2013-03-29 15:43:00,
2013-03-29 10:53:00,47.0,35.0,30.28,East,91,7.0,10.0,62,0.00,,,0.00,,2013-03-29 15:53:00,
2013-03-29 11:03:00,49.0,36.0,30.27,East,88,5.0,10.0,60,0.00,,,0.00,,2013-03-29 16:03:00,
2013-03-29 11:13:00,49.0,36.0,30.27,East,88,5.0,10.0,60,0.00,,,0.00,,2013-03-29 16:13:00,
2013-03-29 11:23:00,49.0,36.0,30.27,East,88,5.0,10.0,60,0.00,,,0.00,,2013-03-29 16:23:00,
2013-03-29 11:32:00,51.0,35.0,30.27,East,93,8.0,12.0,55,0.00,,,0.00,,2013-03-29 16:32:00,
2013-03-29 11:43:00,51.0,35.0,30.27,East,93,8.0,12.0,55,0.00,,,0.00,,2013-03-29 16:43:00,
2013-03-29 11:53:00,51.0,35.0,30.27,East,93,8.0,12.0,55,0.00,,,0.00,,2013-03-29 16:53:00,
2013-03-29 12:03:00,53.0,36.0,30.27,East,100,8.0,12.0,53,0.00,,,0.00,,2013-03-29 17:03:00,
2013-03-29 12:12:00,53.0,36.0,30.27,East,100,8.0,12.0,53,0.00,,,0.00,,2013-03-29 17:12:00,
2013-03-29 12:22:00,53.0,36.0,30.27,East,100,8.0,12.0,53,0.00,,,0.00,,2013-03-29 17:22:00,
2013-03-29 12:33:00,54.0,36.0,30.26,East,100,5.0,10.0,50,0.00,,,0.00,,2013-03-29 17:33:00,
2013-03-29 12:43:00,54.0,36.0,30.26,East,100,5.0,10.0,50,0.00,,,0.00,,2013-03-29 17:43:00,
2013-03-29 12:53:00,54.0,36.0,30.26,East,100,5.0,10.0,50,0.00,,,0.00,,2013-03-29 17:53:00,
2013-03-29 13:02:00,55.0,37.0,30.25,ESE,106,6.0,13.0,51,0.00,,,0.00,,2013-03-29 18:02:00,
2013-03-29 13:12:00,55.0,37.0,30.25,ESE,106,6.0,13.0,51,0.00,,,0.00,,2013-03-29 18:12:00,
2013-03-29 13:23:00,55.0,37.0,30.25,ESE,106,6.0,13.0,51,0.00,,,0.00,,2013-03-29 18:23:00,
2013-03-29 13:32:00,56.0,37.0,30.25,NE,56,6.0,9.0,48,0.00,,,0.00,,2013-03-29 18:32:00,
2013-03-29 13:43:00,56.0,37.0,30.25,NE,56,6.0,9.0,48,0.00,,,0.00,,2013-03-29 18:43:00,
2013-03-29 13:53:00,56.0,37.0,30.25,NE,56,6.0,9.0,48,0.00,,,0.00,,2013-03-29 18:53:00,
2013-03-29 14:02:00,57.0,37.0,30.24,East,87,5.0,11.0,47,0.00,,,0.00,,2013-03-29 19:02:00,
2013-03-29 14:12:00,57.0,37.0,30.24,East,87,5.0,11.0,47,0.00,,,0.00,,2013-03-29 19:12:00,
2013-03-29 14:23:00,57.0,37.0,30.24,East,87,5.0,11.0,47,0.00,,,0.00,,2013-03-29 19:23:00,
2013-03-29 14:32:00,57.0,36.0,30.23,NE,48,2.0,9.0,46,0.00,,,0.00,,2013-03-29 19:32:00,
2013-03-29 14:43:00,57.0,36.0,30.23,NE,48,2.0,9.0,46,0.00,,,0.00,,2013-03-29 19:43:00,
2013-03-29 14:53:00,57.0,36.0,30.23,NE,48,2.0,9.0,46,0.00,,,0.00,,2013-03-29 19:53:00,
2013-03-29 15:02:00,57.0,36.0,30.22,ENE,66,3.0,10.0,45,0.00,,,0.00,,2013-03-29 20:02:00,
2013-03-29 15:12:00,57.0,36.0,30.22,ENE,66,3.0,10.0,45,0.00,,,0.00,,2013-03-29 20:12:00,
2013-03-29 15:22:00,57.0,36.0,30.22,ENE,66,3.0,10.0,45,0.00,,,0.00,,2013-03-29 20:22:00,
2013-03-29 15:33:00,58.0,37.0,30.21,ESE,112,2.0,8.0,45,0.00,,,0.00,,2013-03-29 20:33:00,
2013-03-29 15:42:00,58.0,37.0,30.21,ESE,112,2.0,8.0,45,0.00,,,0.00,,2013-03-29 20:42:00,
2013-03-29 15:52:00,58.0,37.0,30.21,ESE,112,2.0,8.0,45,0.00,,,0.00,,2013-03-29 20:52:00,
2013-03-29 16:02:00,58.0,37.0,30.20,SE,132,2.0,8.0,45,0.00,,,0.00,,2013-03-29 21:02:00,
2013-03-29 16:12:00,58.0,37.0,30.20,SE,132,2.0,8.0,45,0.00,,,0.00,,2013-03-29 21:12:00,
2013-03-29 16:22:00,58.0,37.0,30.20,SE,132,2.0,8.0,45,0.00,,,0.00,,2013-03-29 21:22:00,
2013-03-29 16:33:00,58.0,36.0,30.20,ESE,110,1.0,7.0,44,0.00,,,0.00,,2013-03-29 21:33:00,
2013-03-29 16:43:00,58.0,36.0,30.20,ESE,110,1.0,7.0,44,0.00,,,0.00,,2013-03-29 21:43:00,
2013-03-29 16:53:00,58.0,36.0,30.20,ESE,110,1.0,7.0,44,0.00,,,0.00,,2013-03-29 21:53:00,
2013-03-29 17:03:00,57.0,36.0,30.20,SE,129,2.0,7.0,45,0.00,,,0.00,,2013-03-29 22:03:00,
2013-03-29 17:12:00,57.0,36.0,30.20,SE,129,2.0,7.0,45,0.00,,,0.00,,2013-03-29 22:12:00,
2013-03-29 17:22:00,57.0,36.0,30.20,SE,129,2.0,7.0,45,0.00,,,0.00,,2013-03-29 22:22:00,
2013-03-29 17:33:00,58.0,37.0,30.19,SE,126,4.0,8.0,45,0.00,,,0.00,,2013-03-29 22:33:00,
2013-03-29 17:43:00,58.0,37.0,30.19,SE,126,4.0,8.0,45,0.00,,,0.00,,2013-03-29 22:43:00,
2013-03-29 17:54:00,58.0,37.0,30.19,SE,126,4.0,8.0,45,0.00,,,0.00,,2013-03-29 22:54:00,
2013-03-29 18:02:00,58.0,37.0,30.19,SE,126,4.0,8.0,45,0.00,,,0.00,,2013-03-29 23:02:00,
2013-03-29 18:32:00,56.0,36.0,30.19,NE,40,2.0,6.0,47,0.00,,,0.00,,2013-03-29 23:32:00,
2013-03-29 18:43:00,56.0,36.0,30.19,NE,40,2.0,6.0,47,0.00,,,0.00,,2013-03-29 23:43:00,
2013-03-29 18:52:00,56.0,36.0,30.19,NE,40,2.0,6.0,47,0.00,,,0.00,,2013-03-29 23:52:00,
2013-03-29 19:03:00,55.0,36.0,30.19,NE,50,3.0,4.0,48,0.00,,,0.00,,2013-03-30 00:03:00,
2013-03-29 19:12:00,55.0,36.0,30.19,NE,50,3.0,4.0,48,0.00,,,0.00,,2013-03-30 00:12:00,
2013-03-29 19:22:00,55.0,36.0,30.19,NE,50,3.0,4.0,48,0.00,,,0.00,,2013-03-30 00:22:00,
2013-03-29 19:32:00,54.0,35.0,30.20,NE,44,2.0,5.0,48,0.00,,,0.00,,2013-03-30 00:32:00,
2013-03-29 19:43:00,54.0,35.0,30.20,NE,44,2.0,5.0,48,0.00,,,0.00,,2013-03-30 00:43:00,
2013-03-29 19:53:00,54.0,35.0,30.20,NE,44,2.0,5.0,48,0.00,,,0.00,,2013-03-30 00:53:00,
2013-03-29 20:02:00,53.0,36.0,30.20,NE,44,2.0,4.0,52,0.00,,,0.00,,2013-03-30 01:02:00,
2013-03-29 20:12:00,53.0,36.0,30.20,NE,44,2.0,4.0,52,0.00,,,0.00,,2013-03-30 01:12:00,
2013-03-29 20:22:00,53.0,36.0,30.20,NE,44,2.0,4.0,52,0.00,,,0.00,,2013-03-30 01:22:00,
2013-03-29 20:32:00,53.0,36.0,30.20,NE,44,2.0,4.0,52,0.00,,,0.00,,2013-03-30 01:32:00,
2013-03-29 21:33:00,50.0,37.0,30.22,NE,44,3.0,6.0,61,0.00,,,0.00,,2013-03-30 02:33:00,
2013-03-29 21:43:00,50.0,37.0,30.22,NE,44,3.0,6.0,61,0.00,,,0.00,,2013-03-30 02:43:00,
2013-03-29 21:53:00,50.0,37.0,30.22,NE,44,3.0,6.0,61,0.00,,,0.00,,2013-03-30 02:53:00,
2013-03-29 22:02:00,49.0,37.0,30.22,NE,42,3.0,5.0,63,0.00,,,0.00,,2013-03-30 03:02:00,
2013-03-29 22:12:00,49.0,37.0,30.22,NE,42,3.0,5.0,63,0.00,,,0.00,,2013-03-30 03:12:00,
2013-03-29 22:22:00,49.0,37.0,30.22,NE,42,3.0,5.0,63,0.00,,,0.00,,2013-03-30 03:22:00,
2013-03-29 22:33:00,48.0,37.0,30.23,NE,42,2.0,4.0,66,0.00,,,0.00,,2013-03-30 03:33:00,
2013-03-29 22:43:00,48.0,37.0,30.23,NE,42,2.0,4.0,66,0.00,,,0.00,,2013-03-30 03:43:00,
2013-03-29 22:53:00,48.0,37.0,30.23,NE,42,2.0,4.0,66,0.00,,,0.00,,2013-03-30 03:53:00,
2013-03-29 23:02:00,46.0,36.0,30.23,NE,42,0.0,3.0,69,0.00,,,0.00,,2013-03-30 04:02:00,
2013-03-29 23:12:00,46.0,36.0,30.23,NE,42,0.0,3.0,69,0.00,,,0.00,,2013-03-30 04:12:00,
2013-03-29 23:23:00,46.0,36.0,30.23,NE,42,0.0,3.0,69,0.00,,,0.00,,2013-03-30 04:23:00,
2013-03-29 23:32:00,45.0,37.0,30.22,NE,42,0.0,3.0,72,0.00,,,0.00,,2013-03-30 04:32:00,
2013-03-29 23:43:00,45.0,37.0,30.22,NE,42,0.0,3.0,72,0.00,,,0.00,,2013-03-30 04:43:00,
2013-03-29 23:53:00,45.0,37.0,30.22,NE,42,0.0,3.0,72,0.00,,,0.00,,2013-03-30 04:53:00,